Time;durP1;ratioP1;P1;durP2;ratioP2;P2;SDS_P1;SDS_P2;PMS_P1;PMS_P2;Temp;Humidity;BMP_temperature;BMP_pressure;BME280_temperature;BME280_humidity;BME280_pressure;Samples;Min_cycle;Max_cycle;Signal;HPM_P1;HPM_P2
2023/01/20 00:01:46;;;;;;;3.38;1.42;;;;;;;;;;5059320;28;20048;-69
2023/01/20 00:04:18;;;;;;;8.30;3.30;;;;;;;;;;5050286;28;20045;-69
2023/01/20 00:06:45;;;;;;;9.13;3.70;;;;;;;;;;5060221;28;20066;-71
2023/01/20 00:09:15;;;;;;;11.23;5.85;;;;;;;;;;5056156;28;20115;-71
2023/01/20 00:11:45;;;;;;;25.27;6.18;;;;;;;;;;5055692;28;20441;-74
2023/01/20 00:14:12;;;;;;;18.70;5.75;;;;;;;;;;5039651;28;20045;-69
2023/01/20 00:16:39;;;;;;;20.52;6.20;;;;;;;;;;5040917;28;20624;-70
2023/01/20 00:19:06;;;;;;;23.40;6.18;;;;;;;;;;5039829;28;20045;-73
2023/01/20 00:21:33;;;;;;;19.90;5.55;;;;;;;;;;5044841;28;20593;-73
2023/01/20 00:24:00;;;;;;;11.88;3.10;;;;;;;;;;5044163;28;20571;-72
2023/01/20 00:26:27;;;;;;;9.10;4.15;;;;;;;;;;5042990;28;20052;-73
2023/01/20 00:28:56;;;;;;;22.42;5.10;;;;;;;;;;5046006;28;20048;-72
2023/01/20 00:31:24;;;;;;;4.72;1.60;;;;;;;;;;5044136;28;20462;-73
2023/01/20 00:33:51;;;;;;;9.45;3.28;;;;;;;;;;5075500;28;21041;-73
2023/01/20 00:36:19;;;;;;;7.85;2.80;;;;;;;;;;5041706;28;20156;-74
2023/01/20 00:38:46;;;;;;;15.60;3.38;;;;;;;;;;5044972;28;20124;-75
2023/01/20 00:41:13;;;;;;;10.82;2.28;;;;;;;;;;5040574;28;20048;-74
2023/01/20 00:43:39;;;;;;;3.72;1.77;;;;;;;;;;5044883;28;20041;-75
2023/01/20 00:46:07;;;;;;;4.20;1.40;;;;;;;;;;5045023;28;20029;-74
2023/01/20 00:48:37;;;;;;;7.72;1.85;;;;;;;;;;5046521;28;20049;-73
2023/01/20 00:51:04;;;;;;;3.95;1.33;;;;;;;;;;5045089;28;20040;-73
2023/01/20 00:53:31;;;;;;;4.25;1.15;;;;;;;;;;5048751;28;20175;-74
2023/01/20 00:56:00;;;;;;;2.20;1.00;;;;;;;;;;5042929;28;20091;-72
2023/01/20 00:58:27;;;;;;;1.98;1.10;;;;;;;;;;5046723;28;20165;-72
2023/01/20 01:00:54;;;;;;;3.67;1.05;;;;;;;;;;5048438;28;20124;-73
2023/01/20 01:03:23;;;;;;;1.77;0.82;;;;;;;;;;5048206;28;20336;-74
2023/01/20 01:05:49;;;;;;;2.70;0.95;;;;;;;;;;5047574;28;20041;-74
2023/01/20 01:08:16;;;;;;;1.40;0.93;;;;;;;;;;5042531;28;20041;-74
2023/01/20 01:10:42;;;;;;;4.30;1.45;;;;;;;;;;5044655;28;20543;-74
2023/01/20 01:13:09;;;;;;;2.00;0.80;;;;;;;;;;5048887;28;20044;-73
2023/01/20 01:15:36;;;;;;;2.42;0.90;;;;;;;;;;5048900;28;20107;-74
2023/01/20 01:18:02;;;;;;;3.95;1.90;;;;;;;;;;5046428;28;20817;-74
2023/01/20 01:20:29;;;;;;;1.77;1.00;;;;;;;;;;5045213;28;20051;-74
2023/01/20 01:22:56;;;;;;;1.55;0.93;;;;;;;;;;5045114;28;20627;-74
2023/01/20 01:25:22;;;;;;;1.42;0.98;;;;;;;;;;5049011;28;20048;-74
2023/01/20 01:27:49;;;;;;;0.98;0.68;;;;;;;;;;5047860;28;20549;-74
2023/01/20 01:30:16;;;;;;;4.22;1.63;;;;;;;;;;5046547;28;20041;-74
2023/01/20 01:32:43;;;;;;;1.55;1.27;;;;;;;;;;5045615;28;20049;-73
2023/01/20 01:35:09;;;;;;;3.28;1.02;;;;;;;;;;5045309;28;20064;-74
2023/01/20 01:37:36;;;;;;;1.33;1.05;;;;;;;;;;5046991;28;20045;-74
2023/01/20 01:40:03;;;;;;;1.23;0.93;;;;;;;;;;5047714;28;20041;-74
2023/01/20 01:42:29;;;;;;;2.10;0.70;;;;;;;;;;5047207;28;20044;-74
2023/01/20 01:45:09;;;;;;;1.73;1.33;;;;;;;;;;5040320;28;20044;-73
2023/01/20 01:47:37;;;;;;;3.42;0.73;;;;;;;;;;5051214;28;20045;-74
2023/01/20 01:50:04;;;;;;;1.23;0.85;;;;;;;;;;5045320;28;20037;-74
2023/01/20 01:52:33;;;;;;;2.00;1.05;;;;;;;;;;5043774;28;20041;-74
2023/01/20 01:54:59;;;;;;;;;;;;;;;;;;5051529;28;20044;-74
2023/01/20 01:57:27;;;;;;;2.10;1.17;;;;;;;;;;5080239;28;19997;-73
2023/01/20 01:59:54;;;;;;;1.27;0.98;;;;;;;;;;5044724;28;20635;-74
2023/01/20 02:02:20;;;;;;;1.98;0.63;;;;;;;;;;5047867;28;20562;-74
2023/01/20 02:04:49;;;;;;;1.73;1.45;;;;;;;;;;5080403;28;20803;-74
2023/01/20 02:07:18;;;;;;;2.53;0.88;;;;;;;;;;5046328;28;20106;-74
2023/01/20 02:09:45;;;;;;;1.23;1.02;;;;;;;;;;5045921;28;20767;-74
2023/01/20 02:12:16;;;;;;;1.27;0.65;;;;;;;;;;5043272;28;20064;-74
2023/01/20 02:14:46;;;;;;;1.10;0.82;;;;;;;;;;5045275;28;20045;-74
2023/01/20 02:17:21;;;;;;;2.58;0.93;;;;;;;;;;5045182;28;20170;-74
2023/01/20 02:20:03;;;;;;;2.40;1.00;;;;;;;;;;5046702;28;20037;-73
2023/01/20 02:22:50;;;;;;;1.45;0.73;;;;;;;;;;5044661;28;20847;-74
2023/01/20 02:25:40;;;;;;;1.20;0.70;;;;;;;;;;5047635;28;20051;-74
2023/01/20 02:28:25;;;;;;;1.95;0.77;;;;;;;;;;5044590;28;20041;-74
2023/01/20 02:31:11;;;;;;;1.58;0.93;;;;;;;;;;5048478;28;20044;-73
2023/01/20 02:33:56;;;;;;;6.65;1.52;;;;;;;;;;5048802;28;20132;-73
2023/01/20 02:36:23;;;;;;;1.25;0.70;;;;;;;;;;5081504;28;20106;-72
2023/01/20 02:38:56;;;;;;;1.38;1.27;;;;;;;;;;5045725;28;20041;-72
2023/01/20 02:41:29;;;;;;;2.08;0.80;;;;;;;;;;5047618;28;20139;-72
2023/01/20 02:43:56;;;;;;;5.15;0.82;;;;;;;;;;5046566;28;20052;-72
2023/01/20 02:46:24;;;;;;;1.88;1.33;;;;;;;;;;5045024;28;20036;-73
2023/01/20 02:49:14;;;;;;;1.42;1.17;;;;;;;;;;5046877;28;20060;-73
2023/01/20 02:51:49;;;;;;;1.73;0.80;;;;;;;;;;5045963;28;20044;-72
2023/01/20 02:54:17;;;;;;;0.95;0.80;;;;;;;;;;5039988;28;20044;-73
2023/01/20 02:56:44;;;;;;;1.30;1.17;;;;;;;;;;5045185;28;20044;-73
2023/01/20 02:59:12;;;;;;;2.10;0.75;;;;;;;;;;5039656;28;20079;-74
2023/01/20 03:01:38;;;;;;;2.13;1.92;;;;;;;;;;5041943;28;20063;-71
2023/01/20 03:04:08;;;;;;;2.85;0.90;;;;;;;;;;5041629;28;20040;-71
2023/01/20 03:06:37;;;;;;;0.85;0.60;;;;;;;;;;5050102;28;20564;-71
2023/01/20 03:09:06;;;;;;;1.17;1.00;;;;;;;;;;5043897;28;20693;-73
2023/01/20 03:11:35;;;;;;;4.15;0.80;;;;;;;;;;5045167;28;20277;-72
2023/01/20 03:14:05;;;;;;;6.25;1.55;;;;;;;;;;5046794;28;20055;-73
2023/01/20 03:16:32;;;;;;;2.28;0.70;;;;;;;;;;5036377;28;20120;-72
2023/01/20 03:18:58;;;;;;;1.80;1.00;;;;;;;;;;5045251;28;20037;-71
2023/01/20 03:21:25;;;;;;;2.35;1.20;;;;;;;;;;5044108;28;20099;-73
2023/01/20 03:23:54;;;;;;;3.58;1.00;;;;;;;;;;5044214;28;20052;-71
2023/01/20 03:26:22;;;;;;;1.67;0.70;;;;;;;;;;5043096;28;20101;-71
2023/01/20 03:28:49;;;;;;;1.70;1.00;;;;;;;;;;5043086;28;20122;-71
2023/01/20 03:31:21;;;;;;;1.38;0.70;;;;;;;;;;5041263;28;21446;-72
2023/01/20 03:33:50;;;;;;;1.35;0.70;;;;;;;;;;5069340;28;20056;-71
2023/01/20 03:36:19;;;;;;;3.35;1.35;;;;;;;;;;5044508;28;20049;-72
2023/01/20 03:38:46;;;;;;;0.88;0.60;;;;;;;;;;5044207;28;20119;-71
2023/01/20 03:41:25;;;;;;;1.75;0.95;;;;;;;;;;5044802;28;20049;-71
2023/01/20 03:44:11;;;;;;;1.42;0.95;;;;;;;;;;5041239;28;20040;-70
2023/01/20 03:46:56;;;;;;;2.38;0.80;;;;;;;;;;5039784;28;20049;-72
2023/01/20 03:49:43;;;;;;;1.90;0.82;;;;;;;;;;5050733;28;20056;-72
2023/01/20 03:52:13;;;;;;;2.13;0.90;;;;;;;;;;5046557;28;20431;-71
2023/01/20 03:54:42;;;;;;;1.83;0.90;;;;;;;;;;5046396;28;20110;-72
2023/01/20 03:57:20;;;;;;;1.70;0.95;;;;;;;;;;5051075;28;21350;-72
2023/01/20 03:59:49;;;;;;;2.08;0.80;;;;;;;;;;5048173;28;20043;-72
2023/01/20 04:02:15;;;;;;;1.80;0.80;;;;;;;;;;5047655;28;21172;-72
2023/01/20 04:04:43;;;;;;;2.08;1.17;;;;;;;;;;5052168;28;20064;-71
2023/01/20 04:07:13;;;;;;;0.90;0.63;;;;;;;;;;5052893;28;20051;-72
2023/01/20 04:09:43;;;;;;;3.60;0.98;;;;;;;;;;5047150;28;20040;-72
2023/01/20 04:12:10;;;;;;;1.58;1.00;;;;;;;;;;5049877;28;20052;-72
2023/01/20 04:14:36;;;;;;;1.42;1.27;;;;;;;;;;5048146;28;20620;-72
2023/01/20 04:17:03;;;;;;;1.80;0.80;;;;;;;;;;5048712;28;20102;-72
2023/01/20 04:19:44;;;;;;;1.70;1.33;;;;;;;;;;5048746;28;20053;-71
2023/01/20 04:22:10;;;;;;;;;;;;;;;;;;5051733;28;20114;-71
2023/01/20 04:24:49;;;;;;;1.50;0.73;;;;;;;;;;5053509;28;20282;-71
2023/01/20 04:27:16;;;;;;;2.75;0.82;;;;;;;;;;5054104;28;20045;-71
2023/01/20 04:29:43;;;;;;;3.03;0.80;;;;;;;;;;5049164;28;20056;-71
2023/01/20 04:32:10;;;;;;;1.58;0.60;;;;;;;;;;5053488;28;20052;-71
2023/01/20 04:34:38;;;;;;;;;;;;;;;;;;5051978;28;20525;-71
2023/01/20 04:37:04;;;;;;;1.77;1.67;;;;;;;;;;5052152;28;19932;-71
2023/01/20 04:39:31;;;;;;;1.80;1.27;;;;;;;;;;5047764;28;20479;-70
2023/01/20 04:41:58;;;;;;;1.50;0.82;;;;;;;;;;5049053;28;20044;-71
2023/01/20 04:44:24;;;;;;;3.88;1.08;;;;;;;;;;5052186;28;20123;-71
2023/01/20 04:46:55;;;;;;;1.92;1.00;;;;;;;;;;5047436;28;20104;-72
2023/01/20 04:49:21;;;;;;;1.13;0.73;;;;;;;;;;5048378;28;20118;-72
2023/01/20 04:51:48;;;;;;;2.85;2.55;;;;;;;;;;5048178;28;20399;-72
2023/01/20 04:54:14;;;;;;;1.42;1.17;;;;;;;;;;5047500;28;20051;-71
2023/01/20 04:56:42;;;;;;;1.70;1.42;;;;;;;;;;5043772;28;20097;-71
2023/01/20 04:59:09;;;;;;;1.27;1.00;;;;;;;;;;5046682;28;20045;-72
2023/01/20 05:01:37;;;;;;;1.38;1.00;;;;;;;;;;5047481;28;20051;-71
2023/01/20 05:04:05;;;;;;;2.90;1.10;;;;;;;;;;5046929;28;20529;-72
2023/01/20 05:06:32;;;;;;;1.25;0.70;;;;;;;;;;5046244;28;20534;-72
2023/01/20 05:08:59;;;;;;;1.45;1.35;;;;;;;;;;5045539;28;20051;-72
2023/01/20 05:11:25;;;;;;;1.33;1.02;;;;;;;;;;5047300;28;20049;-72
2023/01/20 05:13:52;;;;;;;1.98;1.88;;;;;;;;;;5046840;28;20052;-72
2023/01/20 05:16:22;;;;;;;2.10;0.90;;;;;;;;;;5047644;28;20047;-71
2023/01/20 05:18:50;;;;;;;1.33;0.88;;;;;;;;;;5046809;28;20478;-72
2023/01/20 05:21:16;;;;;;;2.25;1.42;;;;;;;;;;5050694;28;20048;-72
2023/01/20 05:23:43;;;;;;;7.38;3.08;;;;;;;;;;5077357;28;20812;-72
2023/01/20 05:26:10;;;;;;;1.67;1.30;;;;;;;;;;5050926;28;20063;-72
2023/01/20 05:28:36;;;;;;;1.65;1.55;;;;;;;;;;5045955;28;20156;-72
2023/01/20 05:31:03;;;;;;;3.42;1.20;;;;;;;;;;5046068;28;20044;-72
2023/01/20 05:33:30;;;;;;;2.72;2.28;;;;;;;;;;5045874;28;20041;-72
2023/01/20 05:35:56;;;;;;;2.30;1.33;;;;;;;;;;5052640;28;20041;-72
2023/01/20 05:38:23;;;;;;;3.10;2.17;;;;;;;;;;5047720;28;20048;-71
2023/01/20 05:40:50;;;;;;;4.45;2.53;;;;;;;;;;5044178;28;20044;-71
2023/01/20 05:43:16;;;;;;;3.47;2.17;;;;;;;;;;5050700;28;20068;-71
2023/01/20 05:45:45;;;;;;;2.83;1.23;;;;;;;;;;5050304;28;20035;-72
2023/01/20 05:48:12;;;;;;;4.47;2.13;;;;;;;;;;5044557;28;20747;-72
2023/01/20 05:50:38;;;;;;;4.72;1.50;;;;;;;;;;5039541;28;20049;-72
2023/01/20 05:53:05;;;;;;;5.00;3.30;;;;;;;;;;5081312;28;20048;-72
2023/01/20 05:55:32;;;;;;;8.82;6.60;;;;;;;;;;5041770;28;20051;-72
2023/01/20 05:58:00;;;;;;;3.95;2.50;;;;;;;;;;5044904;28;20526;-72
2023/01/20 06:00:26;;;;;;;8.20;4.00;;;;;;;;;;5047579;28;20041;-72
2023/01/20 06:02:53;;;;;;;7.78;4.18;;;;;;;;;;5042598;28;20049;-72
2023/01/20 06:05:20;;;;;;;7.97;3.33;;;;;;;;;;5038904;28;20048;-71
2023/01/20 06:07:48;;;;;;;6.50;3.88;;;;;;;;;;5042303;28;20437;-72
2023/01/20 06:10:16;;;;;;;5.10;2.63;;;;;;;;;;5048013;28;20124;-72
2023/01/20 06:12:42;;;;;;;6.50;3.17;;;;;;;;;;5043792;28;20045;-72
2023/01/20 06:15:09;;;;;;;6.65;2.72;;;;;;;;;;5042807;28;20048;-72
2023/01/20 06:17:36;;;;;;;5.45;2.92;;;;;;;;;;5047155;28;20647;-72
2023/01/20 06:20:04;;;;;;;6.13;2.50;;;;;;;;;;5044811;28;20041;-72
2023/01/20 06:22:31;;;;;;;3.00;1.75;;;;;;;;;;5039203;28;20037;-72
2023/01/20 06:24:57;;;;;;;6.20;2.17;;;;;;;;;;5044174;28;20044;-72
2023/01/20 06:27:24;;;;;;;3.97;1.90;;;;;;;;;;5047335;28;20885;-72
2023/01/20 06:29:51;;;;;;;7.78;2.75;;;;;;;;;;5047009;28;20051;-72
2023/01/20 06:32:17;;;;;;;5.60;3.70;;;;;;;;;;5044142;28;20689;-72
2023/01/20 06:34:44;;;;;;;4.70;2.38;;;;;;;;;;5044803;28;20033;-70
2023/01/20 06:37:11;;;;;;;8.57;2.50;;;;;;;;;;5038767;28;20745;-72
2023/01/20 06:39:39;;;;;;;8.07;2.05;;;;;;;;;;5043630;28;20037;-72
2023/01/20 06:42:06;;;;;;;9.88;3.15;;;;;;;;;;5043388;28;20041;-72
2023/01/20 06:44:33;;;;;;;6.07;2.45;;;;;;;;;;5038469;28;20114;-72
2023/01/20 06:46:59;;;;;;;6.68;2.53;;;;;;;;;;5043176;28;20040;-72
2023/01/20 06:49:26;;;;;;;7.70;2.95;;;;;;;;;;5039354;28;20662;-72
2023/01/20 06:51:53;;;;;;;4.97;2.67;;;;;;;;;;5044536;28;20029;-71
2023/01/20 06:54:19;;;;;;;84.68;39.47;;;;;;;;;;5042782;28;21305;-71
2023/01/20 06:56:46;;;;;;;9.65;4.75;;;;;;;;;;5046216;28;20048;-72
2023/01/20 06:59:13;;;;;;;9.27;4.38;;;;;;;;;;5040875;28;20068;-72
2023/01/20 07:01:39;;;;;;;6.10;3.63;;;;;;;;;;5042630;28;20510;-71
2023/01/20 07:04:07;;;;;;;8.07;3.55;;;;;;;;;;5043033;28;20051;-72
2023/01/20 07:06:37;;;;;;;8.13;4.18;;;;;;;;;;5042165;28;20789;-72
2023/01/20 07:09:05;;;;;;;9.98;5.68;;;;;;;;;;5043022;28;20052;-71
2023/01/20 07:11:33;;;;;;;9.05;3.47;;;;;;;;;;5040375;28;20433;-71
2023/01/20 07:14:00;;;;;;;5.68;2.25;;;;;;;;;;5045315;28;20041;-72
2023/01/20 07:16:27;;;;;;;4.32;1.65;;;;;;;;;;5042648;28;20045;-71
2023/01/20 07:18:54;;;;;;;6.80;2.20;;;;;;;;;;5043100;28;20118;-68
2023/01/20 07:21:21;;;;;;;4.43;1.98;;;;;;;;;;5041947;28;20110;-69
2023/01/20 07:23:51;;;;;;;6.38;3.45;;;;;;;;;;5046574;28;20102;-68
2023/01/20 07:26:19;;;;;;;3.78;2.15;;;;;;;;;;5046884;28;20052;-69
2023/01/20 07:28:46;;;;;;;5.18;1.25;;;;;;;;;;5051285;28;20094;-69
2023/01/20 07:31:14;;;;;;;5.18;2.33;;;;;;;;;;5042202;28;20441;-69
2023/01/20 07:33:41;;;;;;;4.25;3.15;;;;;;;;;;5047351;28;20040;-69
2023/01/20 07:36:08;;;;;;;3.28;1.80;;;;;;;;;;5042415;28;20045;-69
2023/01/20 07:38:35;;;;;;;2.63;1.77;;;;;;;;;;5044499;28;20045;-69
2023/01/20 07:41:03;;;;;;;2.72;1.25;;;;;;;;;;5046706;28;20703;-75
2023/01/20 07:43:31;;;;;;;2.72;1.38;;;;;;;;;;5047553;28;20028;-75
2023/01/20 07:45:59;;;;;;;3.22;1.65;;;;;;;;;;5052762;28;20056;-74
2023/01/20 07:48:26;;;;;;;3.03;2.05;;;;;;;;;;5070470;28;20047;-74
2023/01/20 07:51:04;;;;;;;4.28;1.40;;;;;;;;;;5052490;28;20041;-75
2023/01/20 07:53:35;;;;;;;3.30;2.85;;;;;;;;;;5049567;28;20041;-74
2023/01/20 07:56:07;;;;;;;4.05;1.45;;;;;;;;;;5058180;28;20121;-75
2023/01/20 07:58:38;;;;;;;5.60;3.53;;;;;;;;;;5058438;28;20156;-75
2023/01/20 08:01:10;;;;;;;5.53;2.85;;;;;;;;;;5049647;28;20049;-74
2023/01/20 08:03:36;;;;;;;2.83;1.73;;;;;;;;;;5051573;28;20500;-75
2023/01/20 08:06:04;;;;;;;3.35;1.92;;;;;;;;;;5053405;28;20052;-74
2023/01/20 08:08:31;;;;;;;4.55;2.03;;;;;;;;;;5080478;28;20767;-75
2023/01/20 08:11:00;;;;;;;8.95;4.00;;;;;;;;;;5052560;28;20056;-74
2023/01/20 08:13:26;;;;;;;;;;;;;;;;;;5063269;28;20079;-74
2023/01/20 08:15:54;;;;;;;7.95;3.10;;;;;;;;;;5057425;28;20462;-74
2023/01/20 08:18:21;;;;;;;5.07;3.25;;;;;;;;;;5053316;28;20602;-75
2023/01/20 08:20:47;;;;;;;4.95;2.67;;;;;;;;;;5052284;28;20967;-74
2023/01/20 08:23:14;;;;;;;10.50;3.95;;;;;;;;;;5054543;28;20033;-74
2023/01/20 08:25:41;;;;;;;3.70;2.85;;;;;;;;;;5030556;28;20045;-74
2023/01/20 08:28:08;;;;;;;2.97;2.03;;;;;;;;;;5049273;28;20098;-75
2023/01/20 08:30:35;;;;;;;3.10;1.30;;;;;;;;;;5045531;28;20578;-74
2023/01/20 08:33:02;;;;;;;3.42;1.60;;;;;;;;;;5046666;28;20025;-75
2023/01/20 08:35:28;;;;;;;3.05;1.30;;;;;;;;;;5045649;28;20037;-74
2023/01/20 08:37:55;;;;;;;2.25;1.38;;;;;;;;;;5047786;28;20120;-75
2023/01/20 08:40:22;;;;;;;6.03;2.08;;;;;;;;;;5043158;28;20596;-75
2023/01/20 08:42:48;;;;;;;3.45;1.55;;;;;;;;;;5080791;28;20132;-75
2023/01/20 08:45:15;;;;;;;3.20;1.23;;;;;;;;;;5043647;28;20033;-78
2023/01/20 08:47:44;;;;;;;2.95;1.10;;;;;;;;;;5044298;28;20039;-78
2023/01/20 08:50:12;;;;;;;2.05;1.17;;;;;;;;;;5063950;28;20709;-78
2023/01/20 08:52:40;;;;;;;1.65;1.10;;;;;;;;;;5042874;28;20069;-78
2023/01/20 08:55:06;;;;;;;2.28;0.85;;;;;;;;;;5047461;28;20047;-77
2023/01/20 08:57:33;;;;;;;0.82;0.52;;;;;;;;;;5045384;28;20051;-78
2023/01/20 09:00:03;;;;;;;1.55;0.77;;;;;;;;;;5039512;28;20045;-80
2023/01/20 09:02:30;;;;;;;1.75;1.13;;;;;;;;;;5040696;28;20071;-78
2023/01/20 09:04:57;;;;;;;4.40;2.10;;;;;;;;;;5052259;28;20120;-78
2023/01/20 09:07:24;;;;;;;4.20;2.25;;;;;;;;;;5046905;28;20064;-75
2023/01/20 09:09:50;;;;;;;3.05;2.35;;;;;;;;;;5043244;28;20530;-76
2023/01/20 09:12:17;;;;;;;5.38;2.03;;;;;;;;;;5044798;28;20752;-76
2023/01/20 09:14:44;;;;;;;2.00;1.10;;;;;;;;;;5048318;28;20040;-76
2023/01/20 09:17:10;;;;;;;3.55;1.45;;;;;;;;;;5053564;28;20041;-76
2023/01/20 09:19:37;;;;;;;2.05;1.20;;;;;;;;;;5044553;28;20072;-76
2023/01/20 09:22:03;;;;;;;5.20;2.60;;;;;;;;;;5049094;28;20735;-75
2023/01/20 09:24:30;;;;;;;4.05;1.42;;;;;;;;;;5041159;28;20064;-75
2023/01/20 09:26:57;;;;;;;2.53;1.60;;;;;;;;;;5045963;28;20036;-76
2023/01/20 09:29:23;;;;;;;1.33;0.70;;;;;;;;;;5045595;28;20795;-76
2023/01/20 09:31:56;;;;;;;2.55;1.55;;;;;;;;;;5046407;28;20075;-75
2023/01/20 09:34:25;;;;;;;4.40;2.83;;;;;;;;;;5041041;28;20037;-77
2023/01/20 09:36:52;;;;;;;4.72;2.35;;;;;;;;;;5061338;28;20138;-76
2023/01/20 09:45:23;;;;;;;3.97;3.60;;;;;;;;;;5044822;28;20049;-70
2023/01/20 09:47:50;;;;;;;2.78;2.58;;;;;;;;;;5040656;28;20243;-70
2023/01/20 09:53:16;;;;;;;1.88;1.00;;;;;;;;;;5048490;28;20041;-78
2023/01/20 09:55:45;;;;;;;3.55;1.83;;;;;;;;;;5028184;28;20075;-78
2023/01/20 09:58:12;;;;;;;2.35;0.77;;;;;;;;;;5061290;28;20028;-76
2023/01/20 10:00:39;;;;;;;1.48;1.38;;;;;;;;;;5062773;28;20090;-77
2023/01/20 10:03:19;;;;;;;2.67;2.05;;;;;;;;;;5047282;28;20033;-75
2023/01/20 10:05:47;;;;;;;1.83;1.58;;;;;;;;;;5049421;28;20040;-74
2023/01/20 10:08:14;;;;;;;;;;;;;;;;;;5049728;28;20128;-71
2023/01/20 10:10:55;;;;;;;2.13;1.00;;;;;;;;;;5046657;28;19924;-71
2023/01/20 10:13:24;;;;;;;1.98;1.73;;;;;;;;;;5046648;28;20740;-72
2023/01/20 10:15:54;;;;;;;1.60;0.80;;;;;;;;;;5041137;28;20045;-71
2023/01/20 10:18:21;;;;;;;2.00;1.63;;;;;;;;;;5049806;28;20110;-79
2023/01/20 10:20:57;;;;;;;6.00;1.38;;;;;;;;;;5045019;28;20064;-78
2023/01/20 10:23:28;;;;;;;1.77;1.63;;;;;;;;;;5048775;28;20136;-79
2023/01/20 10:26:03;;;;;;;1.98;1.45;;;;;;;;;;5051011;28;20098;-79
2023/01/20 10:28:48;;;;;;;2.08;1.85;;;;;;;;;;5047779;28;20563;-79
2023/01/20 10:31:20;;;;;;;1.67;1.05;;;;;;;;;;5051184;28;20036;-76
2023/01/20 10:33:47;;;;;;;2.00;1.20;;;;;;;;;;5043766;28;20509;-75
2023/01/20 10:36:18;;;;;;;1.85;1.42;;;;;;;;;;5048805;28;20040;-75
2023/01/20 10:38:44;;;;;;;2.78;2.42;;;;;;;;;;5029456;28;20055;-76
2023/01/20 10:41:25;;;;;;;3.45;2.20;;;;;;;;;;5043734;28;20086;-76
2023/01/20 10:43:52;;;;;;;1.75;1.52;;;;;;;;;;5042664;28;20072;-75
2023/01/20 10:46:42;;;;;;;1.55;1.05;;;;;;;;;;5046088;28;20135;-75
2023/01/20 10:49:11;;;;;;;1.45;0.93;;;;;;;;;;5046015;28;20089;-75
2023/01/20 10:51:45;;;;;;;3.03;1.42;;;;;;;;;;5045517;28;20139;-76
2023/01/20 10:54:30;;;;;;;3.35;1.90;;;;;;;;;;5041141;28;20049;-76
2023/01/20 10:56:58;;;;;;;3.30;1.35;;;;;;;;;;5045872;28;20059;-75
2023/01/20 10:59:31;;;;;;;2.20;1.48;;;;;;;;;;5045073;28;20053;-75
2023/01/20 11:02:01;;;;;;;2.35;1.55;;;;;;;;;;5045900;28;20159;-79
2023/01/20 11:04:37;;;;;;;2.85;1.65;;;;;;;;;;5090847;28;20025;-77
2023/01/20 11:07:07;;;;;;;1.02;0.73;;;;;;;;;;5075752;28;20032;-77
2023/01/20 11:09:36;;;;;;;3.10;1.23;;;;;;;;;;5069056;28;20033;-77
2023/01/20 11:12:08;;;;;;;1.90;1.25;;;;;;;;;;5065696;28;20048;-75
2023/01/20 11:14:38;;;;;;;3.75;1.48;;;;;;;;;;5053948;28;20048;-74
2023/01/20 11:17:06;;;;;;;2.05;1.85;;;;;;;;;;5049655;28;20044;-71
2023/01/20 11:19:51;;;;;;;2.20;2.00;;;;;;;;;;5047331;28;20126;-75
2023/01/20 11:22:36;;;;;;;2.53;0.82;;;;;;;;;;5044570;28;20053;-79
2023/01/20 11:25:03;;;;;;;3.53;1.67;;;;;;;;;;5047991;28;20068;-77
2023/01/20 11:27:35;;;;;;;3.58;1.65;;;;;;;;;;5042060;28;20045;-77
2023/01/20 11:30:04;;;;;;;1.02;0.90;;;;;;;;;;5043103;28;20957;-77
2023/01/20 11:32:31;;;;;;;2.85;1.38;;;;;;;;;;5047346;28;20102;-77
2023/01/20 11:34:58;;;;;;;2.70;1.75;;;;;;;;;;5035415;28;20312;-76
2023/01/20 11:37:25;;;;;;;3.47;2.63;;;;;;;;;;5043855;28;20060;-77
2023/01/20 11:39:52;;;;;;;5.70;2.78;;;;;;;;;;5044248;28;20095;-77
2023/01/20 11:42:20;;;;;;;5.53;3.33;;;;;;;;;;5042413;28;20056;-76
2023/01/20 11:44:51;;;;;;;4.63;2.00;;;;;;;;;;5054576;28;20045;-76
2023/01/20 11:47:24;;;;;;;2.30;1.17;;;;;;;;;;5048767;28;20106;-75
2023/01/20 11:50:02;;;;;;;1.65;1.02;;;;;;;;;;5051511;28;20041;-75
2023/01/20 11:52:30;;;;;;;2.28;1.42;;;;;;;;;;5081284;28;20063;-77
2023/01/20 11:55:20;;;;;;;4.63;1.73;;;;;;;;;;5044160;28;20147;-79
2023/01/20 11:57:49;;;;;;;2.17;1.02;;;;;;;;;;5032507;28;20041;-75
2023/01/20 12:00:26;;;;;;;3.30;1.63;;;;;;;;;;5048983;28;20079;-76
2023/01/20 12:03:11;;;;;;;3.80;1.05;;;;;;;;;;5045937;28;20087;-77
2023/01/20 12:05:37;;;;;;;1.38;0.93;;;;;;;;;;5045444;28;20502;-77
2023/01/20 12:08:09;;;;;;;3.30;0.85;;;;;;;;;;5048581;28;20041;-78
2023/01/20 12:10:36;;;;;;;1.83;1.55;;;;;;;;;;5051996;28;20094;-74
2023/01/20 12:13:11;;;;;;;2.78;1.52;;;;;;;;;;5050007;28;20255;-76
2023/01/20 12:15:40;;;;;;;1.58;1.45;;;;;;;;;;5050966;28;20049;-76
2023/01/20 12:18:14;;;;;;;12.77;9.15;;;;;;;;;;5052187;28;20037;-75
2023/01/20 12:20:45;;;;;;;4.32;1.75;;;;;;;;;;5042220;28;20045;-74
2023/01/20 12:23:45;;;;;;;6.18;1.50;;;;;;;;;;5047323;28;20550;-73
2023/01/20 12:26:12;;;;;;;10.07;2.15;;;;;;;;;;5046969;28;20556;-74
2023/01/20 12:28:41;;;;;;;11.15;2.70;;;;;;;;;;5048759;28;20037;-74
2023/01/20 12:31:07;;;;;;;;;;;;;;;;;;5049918;28;20051;-73
2023/01/20 12:33:37;;;;;;;8.85;5.15;;;;;;;;;;5047746;28;19920;-77
2023/01/20 12:36:23;;;;;;;4.45;2.53;;;;;;;;;;5048941;28;20065;-74
2023/01/20 12:38:50;;;;;;;7.50;4.00;;;;;;;;;;5048093;28;20053;-80
2023/01/20 12:41:36;;;;;;;8.75;2.97;;;;;;;;;;5050937;28;20051;-80
2023/01/20 12:44:14;;;;;;;2.92;1.75;;;;;;;;;;5079547;28;20064;-79
2023/01/20 12:46:45;;;;;;;6.15;2.33;;;;;;;;;;5076965;28;21073;-78
2023/01/20 12:49:41;;;;;;;9.05;5.32;;;;;;;;;;5050889;28;20135;-78
2023/01/20 12:52:25;;;;;;;5.88;3.47;;;;;;;;;;5006590;28;20054;-78
2023/01/20 12:55:10;;;;;;;7.65;4.32;;;;;;;;;;5046772;28;20574;-72
2023/01/20 12:57:40;;;;;;;8.20;3.55;;;;;;;;;;5047292;28;20045;-72
2023/01/20 13:00:26;;;;;;;7.93;3.63;;;;;;;;;;5047865;28;20033;-73
2023/01/20 13:02:56;;;;;;;4.47;2.08;;;;;;;;;;5045268;28;20059;-72
2023/01/20 13:05:42;;;;;;;6.68;3.53;;;;;;;;;;5046400;28;20052;-72
2023/01/20 13:08:23;;;;;;;8.80;3.30;;;;;;;;;;5049857;28;20595;-77
2023/01/20 13:10:55;;;;;;;4.57;3.03;;;;;;;;;;5047070;28;20052;-76
